Terminal Aerodrome Forecast
Issued by NWS

Home | Current Version | Previous Version | Graphics & Text | Print | Product List | Glossary On
Versions: 1 2 3 4 5 6 7 8 9 10 11 12 13 14
000
FTUS43 KFGF 131100
TAFBJI
TAF
KBJI 131132Z 1312/1412 19005KT P6SM SKC
     FM131600 18012G18KT P6SM OVC250
     FM140100 19007KT P6SM BKN070=

USA.gov is the U.S. government's official web portal to all federal, state and local government web resources and services.